Time;durP1;ratioP1;P1;durP2;ratioP2;P2;SDS_P1;SDS_P2;PMS_P1;PMS_P2;Temp;Humidity;BMP_temperature;BMP_pressure;BME280_temperature;BME280_humidity;BME280_pressure;Samples;Min_cycle;Max_cycle;Signal;HPM_P1;HPM_P2
2021/06/23 00:00:25;;;;;;;13.25;7.85;;;;;;;;;;5003313;28;20048;-88
2021/06/23 00:02:51;;;;;;;11.10;7.43;;;;;;;;;;5001754;28;20043;-88
2021/06/23 00:05:17;;;;;;;14.85;7.35;;;;;;;;;;4983989;28;20042;-88
2021/06/23 00:07:46;;;;;;;11.90;6.82;;;;;;;;;;5001239;28;20041;-89
2021/06/23 00:10:13;;;;;;;13.02;7.57;;;;;;;;;;5003786;28;20095;-87
2021/06/23 00:12:39;;;;;;;14.23;6.97;;;;;;;;;;5016356;28;20121;-85
2021/06/23 00:15:06;;;;;;;17.73;9.63;;;;;;;;;;5010275;28;20031;-85
2021/06/23 00:17:32;;;;;;;15.75;9.23;;;;;;;;;;5017322;28;20496;-87
2021/06/23 00:19:59;;;;;;;14.95;8.30;;;;;;;;;;4993923;28;20041;-87
2021/06/23 00:22:25;;;;;;;15.88;12.82;;;;;;;;;;4976512;28;20120;-87
2021/06/23 00:24:51;;;;;;;18.08;12.43;;;;;;;;;;5005204;28;20034;-87
2021/06/23 00:27:17;;;;;;;15.90;11.18;;;;;;;;;;5012767;28;20581;-85
2021/06/23 00:29:43;;;;;;;18.65;9.43;;;;;;;;;;5032909;28;20072;-91
2021/06/23 00:32:15;;;;;;;13.55;9.07;;;;;;;;;;5020016;28;20107;-86
2021/06/23 00:34:42;;;;;;;28.50;18.50;;;;;;;;;;4988521;28;20041;-84
2021/06/23 00:37:08;;;;;;;22.30;16.48;;;;;;;;;;5013098;28;20191;-82
2021/06/23 00:39:34;;;;;;;17.67;12.10;;;;;;;;;;4999649;28;20506;-83
2021/06/23 00:42:00;;;;;;;23.95;15.23;;;;;;;;;;5003124;28;20527;-83
2021/06/23 00:44:28;;;;;;;19.90;14.18;;;;;;;;;;5016116;28;20120;-83
2021/06/23 00:46:54;;;;;;;21.35;11.02;;;;;;;;;;5017580;28;20500;-82
2021/06/23 00:49:20;;;;;;;13.10;9.32;;;;;;;;;;5019564;28;20080;-84
2021/06/23 00:51:46;;;;;;;17.98;11.85;;;;;;;;;;5023090;28;20045;-83
2021/06/23 00:54:13;;;;;;;21.45;16.08;;;;;;;;;;5003061;28;20741;-84
2021/06/23 00:56:39;;;;;;;15.98;10.38;;;;;;;;;;5014103;28;20065;-82
2021/06/23 00:59:06;;;;;;;10.77;8.38;;;;;;;;;;5019002;28;20068;-84
2021/06/23 01:01:37;;;;;;;19.13;9.90;;;;;;;;;;5021359;28;20048;-83
2021/06/23 01:04:03;;;;;;;10.77;7.57;;;;;;;;;;5001065;28;20045;-83
2021/06/23 01:06:30;;;;;;;19.38;13.90;;;;;;;;;;5000305;28;20049;-82
2021/06/23 01:08:56;;;;;;;14.23;9.45;;;;;;;;;;5016221;28;20080;-82
2021/06/23 01:11:22;;;;;;;14.25;8.20;;;;;;;;;;5009442;28;20029;-82
2021/06/23 01:13:50;;;;;;;13.68;7.80;;;;;;;;;;5031974;28;20041;-83
2021/06/23 01:16:17;;;;;;;13.63;7.22;;;;;;;;;;5014356;28;20045;-84
2021/06/23 01:18:44;;;;;;;16.73;8.48;;;;;;;;;;5018530;28;20049;-84
2021/06/23 01:21:10;;;;;;;9.77;6.32;;;;;;;;;;5015231;28;20033;-85
2021/06/23 01:23:37;;;;;;;12.02;7.28;;;;;;;;;;5011350;28;20029;-86
2021/06/23 01:26:03;;;;;;;12.30;7.38;;;;;;;;;;5021586;28;20045;-85
2021/06/23 01:28:29;;;;;;;11.13;6.75;;;;;;;;;;5007722;28;20053;-86
2021/06/23 01:30:57;;;;;;;12.82;8.50;;;;;;;;;;5027643;28;20495;-85
2021/06/23 01:33:24;;;;;;;10.77;7.57;;;;;;;;;;5016179;28;20033;-82
2021/06/23 01:35:51;;;;;;;14.30;7.50;;;;;;;;;;5019645;28;20107;-85
2021/06/23 01:38:17;;;;;;;10.80;6.30;;;;;;;;;;5015598;28;20033;-83
2021/06/23 01:40:43;;;;;;;12.60;8.00;;;;;;;;;;5020326;28;20045;-85
2021/06/23 01:43:12;;;;;;;17.90;9.63;;;;;;;;;;5018806;28;20534;-84
2021/06/23 01:45:39;;;;;;;16.17;9.27;;;;;;;;;;5025417;28;20036;-84
2021/06/23 01:48:06;;;;;;;12.85;9.00;;;;;;;;;;5011573;28;20211;-84
2021/06/23 01:50:32;;;;;;;13.13;6.63;;;;;;;;;;5017105;28;20065;-84
2021/06/23 01:52:58;;;;;;;11.52;6.63;;;;;;;;;;5040060;28;20025;-85
2021/06/23 01:55:27;;;;;;;10.60;5.78;;;;;;;;;;5040466;28;20044;-84
2021/06/23 01:58:01;;;;;;;16.98;8.27;;;;;;;;;;5004044;28;20518;-83
2021/06/23 02:00:31;;;;;;;14.52;10.02;;;;;;;;;;5017888;28;20045;-84
2021/06/23 02:03:01;;;;;;;15.57;9.25;;;;;;;;;;5010444;28;20037;-84
2021/06/23 02:05:37;;;;;;;19.27;11.93;;;;;;;;;;5005804;28;20034;-85
2021/06/23 02:08:24;;;;;;;16.95;10.73;;;;;;;;;;5000960;28;20132;-84
2021/06/23 02:10:52;;;;;;;15.30;8.45;;;;;;;;;;5000351;28;20102;-84
2021/06/23 02:13:36;;;;;;;16.55;7.90;;;;;;;;;;5013534;28;20045;-84
2021/06/23 02:16:07;;;;;;;13.98;8.65;;;;;;;;;;5017873;28;20045;-84
2021/06/23 02:18:34;;;;;;;15.20;9.27;;;;;;;;;;5010633;28;20045;-85
2021/06/23 02:21:01;;;;;;;14.05;8.52;;;;;;;;;;5019968;28;20103;-85
2021/06/23 02:23:27;;;;;;;16.13;8.95;;;;;;;;;;5006680;28;20032;-85
2021/06/23 02:25:53;;;;;;;15.90;9.48;;;;;;;;;;5001010;28;20048;-84
2021/06/23 02:28:23;;;;;;;17.13;10.63;;;;;;;;;;5013059;28;20054;-82
2021/06/23 02:30:50;;;;;;;22.67;14.07;;;;;;;;;;4999811;28;20033;-81
2021/06/23 02:33:16;;;;;;;18.95;13.13;;;;;;;;;;5007584;28;20048;-80
2021/06/23 02:35:42;;;;;;;16.38;10.73;;;;;;;;;;4991909;28;20065;-81
2021/06/23 02:38:08;;;;;;;23.98;13.57;;;;;;;;;;4977774;28;20030;-81
2021/06/23 02:40:34;;;;;;;16.67;10.52;;;;;;;;;;4998542;28;20511;-81
2021/06/23 02:43:01;;;;;;;23.00;12.15;;;;;;;;;;4982393;28;20057;-79
2021/06/23 02:45:27;;;;;;;16.58;10.55;;;;;;;;;;4999784;28;20047;-83
2021/06/23 02:47:53;;;;;;;19.52;13.57;;;;;;;;;;4968285;28;20057;-80
2021/06/23 02:50:20;;;;;;;17.48;10.73;;;;;;;;;;4998439;28;20038;-82
2021/06/23 02:52:46;;;;;;;17.60;10.45;;;;;;;;;;4996459;28;20049;-88
2021/06/23 02:55:19;;;;;;;20.67;14.23;;;;;;;;;;5008046;28;20054;-86
2021/06/23 02:57:46;;;;;;;19.42;12.02;;;;;;;;;;5010188;28;20602;-84
2021/06/23 03:00:12;;;;;;;19.30;12.27;;;;;;;;;;4993859;28;20038;-85
2021/06/23 03:02:38;;;;;;;20.80;13.75;;;;;;;;;;5005317;28;20037;-85
2021/06/23 03:05:05;;;;;;;29.48;19.33;;;;;;;;;;5006086;28;20550;-86
2021/06/23 03:07:31;;;;;;;23.67;14.68;;;;;;;;;;5011047;28;20045;-85
2021/06/23 03:10:07;;;;;;;21.15;14.52;;;;;;;;;;5012745;28;20062;-85
2021/06/23 03:12:34;;;;;;;17.63;13.05;;;;;;;;;;5000948;28;20034;-85
2021/06/23 03:15:00;;;;;;;22.65;16.70;;;;;;;;;;5000714;28;20050;-85
2021/06/23 03:17:26;;;;;;;26.75;17.90;;;;;;;;;;5002111;28;20038;-87
2021/06/23 03:19:53;;;;;;;25.98;17.02;;;;;;;;;;4999602;28;20081;-87
2021/06/23 03:22:19;;;;;;;27.90;18.70;;;;;;;;;;5006489;28;20511;-86
2021/06/23 03:24:45;;;;;;;20.90;14.80;;;;;;;;;;5000258;28;20066;-85
2021/06/23 03:27:11;;;;;;;27.30;16.77;;;;;;;;;;4976895;28;20091;-86
2021/06/23 03:29:37;;;;;;;22.50;13.77;;;;;;;;;;5023853;28;20029;-85
2021/06/23 03:32:08;;;;;;;19.27;13.10;;;;;;;;;;5025106;28;20033;-86
2021/06/23 03:34:37;;;;;;;22.60;15.98;;;;;;;;;;5041184;28;20037;-85
2021/06/23 03:37:04;;;;;;;23.33;16.40;;;;;;;;;;5026439;28;20037;-86
2021/06/23 03:39:30;;;;;;;21.83;13.20;;;;;;;;;;5020661;28;20033;-85
2021/06/23 03:41:56;;;;;;;23.70;14.20;;;;;;;;;;5012934;28;20067;-86
2021/06/23 03:44:22;;;;;;;23.25;13.70;;;;;;;;;;5008737;28;20041;-86
2021/06/23 03:46:48;;;;;;;25.95;15.73;;;;;;;;;;5018723;28;20045;-86
2021/06/23 03:49:13;;;;;;;22.17;14.40;;;;;;;;;;5026197;28;20037;-86
2021/06/23 03:51:40;;;;;;;22.48;17.27;;;;;;;;;;5009973;28;20068;-84
2021/06/23 03:54:06;;;;;;;24.02;15.40;;;;;;;;;;4976845;28;20041;-86
2021/06/23 03:56:32;;;;;;;21.30;14.93;;;;;;;;;;5022067;28;20483;-82
2021/06/23 03:58:58;;;;;;;24.20;17.45;;;;;;;;;;5024588;28;20040;-85
2021/06/23 04:01:24;;;;;;;20.92;14.10;;;;;;;;;;5019507;28;20038;-87
2021/06/23 04:03:50;;;;;;;21.50;13.70;;;;;;;;;;5021662;28;20037;-86
2021/06/23 04:06:16;;;;;;;24.30;15.27;;;;;;;;;;5008605;28;20053;-86
2021/06/23 04:08:42;;;;;;;25.20;17.50;;;;;;;;;;4990146;28;20107;-87
2021/06/23 04:11:08;;;;;;;23.75;13.15;;;;;;;;;;5033411;28;20029;-86
2021/06/23 04:13:34;;;;;;;23.83;16.17;;;;;;;;;;5033054;28;20068;-86
2021/06/23 04:16:00;;;;;;;22.25;13.63;;;;;;;;;;5032123;28;20043;-87
2021/06/23 04:18:26;;;;;;;19.35;12.25;;;;;;;;;;5009244;28;20039;-87
2021/06/23 04:20:52;;;;;;;21.80;13.05;;;;;;;;;;5036757;28;20487;-86
2021/06/23 04:23:18;;;;;;;25.25;17.65;;;;;;;;;;5035066;28;20063;-87
2021/06/23 04:25:44;;;;;;;20.52;14.73;;;;;;;;;;4996309;28;20038;-86
2021/06/23 04:28:10;;;;;;;19.13;13.45;;;;;;;;;;4978675;28;20045;-82
2021/06/23 04:30:37;;;;;;;22.80;12.90;;;;;;;;;;5009733;28;20120;-86
2021/06/23 04:33:03;;;;;;;24.05;14.65;;;;;;;;;;5027048;28;20049;-84
2021/06/23 04:35:29;;;;;;;21.85;14.07;;;;;;;;;;5011753;28;20060;-86
2021/06/23 04:37:55;;;;;;;35.28;19.40;;;;;;;;;;5004154;28;20112;-86
2021/06/23 04:40:21;;;;;;;23.70;15.10;;;;;;;;;;4993292;28;20113;-87
2021/06/23 04:42:47;;;;;;;21.55;14.13;;;;;;;;;;4973493;28;20999;-85
2021/06/23 04:45:14;;;;;;;32.35;17.63;;;;;;;;;;4999630;28;20114;-86
2021/06/23 04:47:40;;;;;;;31.15;17.00;;;;;;;;;;5022731;28;20060;-85
2021/06/23 04:50:07;;;;;;;39.95;20.90;;;;;;;;;;5028946;28;20029;-87
2021/06/23 04:52:34;;;;;;;30.23;17.50;;;;;;;;;;5037650;28;20058;-86
2021/06/23 04:55:00;;;;;;;51.58;23.75;;;;;;;;;;5011805;28;20155;-87
2021/06/23 04:57:26;;;;;;;27.50;16.10;;;;;;;;;;5022588;28;20109;-88
2021/06/23 04:59:52;;;;;;;46.67;22.52;;;;;;;;;;5013094;28;20052;-85
2021/06/23 05:02:18;;;;;;;33.03;17.45;;;;;;;;;;5038130;28;20075;-86
2021/06/23 05:04:44;;;;;;;24.25;14.90;;;;;;;;;;5027872;28;20071;-86
2021/06/23 05:07:10;;;;;;;19.42;12.68;;;;;;;;;;5015316;28;20061;-86
2021/06/23 05:09:37;;;;;;;21.90;11.15;;;;;;;;;;4988585;28;20037;-87
2021/06/23 05:12:03;;;;;;;19.15;11.07;;;;;;;;;;5014134;28;20049;-86
2021/06/23 05:14:29;;;;;;;17.08;11.27;;;;;;;;;;5028406;28;20033;-87
2021/06/23 05:16:56;;;;;;;16.33;10.52;;;;;;;;;;5018043;28;20523;-85
2021/06/23 05:19:23;;;;;;;15.07;10.75;;;;;;;;;;5026832;28;20048;-86
2021/06/23 05:21:50;;;;;;;17.40;10.18;;;;;;;;;;5015077;28;20041;-87
2021/06/23 05:24:17;;;;;;;15.73;9.63;;;;;;;;;;5001160;28;20071;-87
2021/06/23 05:26:43;;;;;;;42.67;14.23;;;;;;;;;;5014534;28;20058;-86
2021/06/23 05:29:11;;;;;;;17.20;10.23;;;;;;;;;;5006935;28;20030;-86
2021/06/23 05:31:37;;;;;;;40.72;13.57;;;;;;;;;;5033384;28;20595;-87
2021/06/23 05:34:03;;;;;;;16.17;11.55;;;;;;;;;;5025868;28;20514;-87
2021/06/23 05:36:29;;;;;;;20.27;12.07;;;;;;;;;;5025081;28;20042;-87
2021/06/23 05:38:55;;;;;;;15.98;11.18;;;;;;;;;;5022866;28;20037;-88
2021/06/23 05:41:21;;;;;;;15.07;10.80;;;;;;;;;;5001574;28;20500;-87
2021/06/23 05:43:47;;;;;;;14.00;10.07;;;;;;;;;;5003758;28;20037;-85
2021/06/23 05:46:13;;;;;;;11.60;8.00;;;;;;;;;;5017395;28;20053;-87
2021/06/23 05:48:42;;;;;;;18.58;9.00;;;;;;;;;;5020417;28;20033;-86
2021/06/23 05:51:08;;;;;;;43.83;10.82;;;;;;;;;;5019659;28;20152;-85
2021/06/23 05:53:34;;;;;;;65.05;11.15;;;;;;;;;;4996156;28;20116;-87
2021/06/23 05:56:00;;;;;;;21.98;9.07;;;;;;;;;;5020671;28;20045;-86
2021/06/23 05:58:26;;;;;;;33.72;10.88;;;;;;;;;;5002107;28;20092;-87
2021/06/23 06:00:52;;;;;;;25.48;9.95;;;;;;;;;;5002827;28;20400;-87
2021/06/23 06:03:19;;;;;;;14.27;8.20;;;;;;;;;;5007275;28;20120;-88
2021/06/23 06:05:46;;;;;;;32.88;9.82;;;;;;;;;;5002625;28;20048;-84
2021/06/23 06:08:13;;;;;;;37.72;12.95;;;;;;;;;;5002245;28;20556;-87
2021/06/23 06:10:40;;;;;;;28.15;10.73;;;;;;;;;;5012613;28;20036;-87
2021/06/23 06:13:06;;;;;;;30.55;10.27;;;;;;;;;;5029078;28;20038;-86
2021/06/23 06:15:32;;;;;;;43.85;14.63;;;;;;;;;;5015213;28;20553;-84
2021/06/23 06:18:03;;;;;;;61.70;15.70;;;;;;;;;;5002735;28;20040;-86
2021/06/23 06:20:29;;;;;;;54.50;16.10;;;;;;;;;;5015973;28;20034;-87
2021/06/23 06:22:56;;;;;;;35.92;13.30;;;;;;;;;;5021194;28;20034;-87
2021/06/23 06:25:22;;;;;;;27.50;10.95;;;;;;;;;;5014718;28;20443;-86
2021/06/23 06:27:48;;;;;;;60.13;16.00;;;;;;;;;;5001057;28;20503;-87
2021/06/23 06:30:14;;;;;;;25.38;13.52;;;;;;;;;;5024015;28;20089;-85
2021/06/23 06:32:40;;;;;;;65.97;18.15;;;;;;;;;;5020125;28;20410;-87
2021/06/23 06:35:06;;;;;;;153.07;30.02;;;;;;;;;;5005605;28;20109;-87
2021/06/23 06:37:32;;;;;;;38.53;12.60;;;;;;;;;;5001489;28;20052;-86
2021/06/23 06:39:58;;;;;;;68.88;13.90;;;;;;;;;;5022698;28;20042;-85
2021/06/23 06:42:24;;;;;;;58.88;13.52;;;;;;;;;;5005573;28;20099;-86
2021/06/23 06:44:50;;;;;;;70.70;18.92;;;;;;;;;;5033733;28;20041;-82
2021/06/23 06:47:16;;;;;;;143.60;34.38;;;;;;;;;;5014635;28;20056;-85
2021/06/23 06:49:42;;;;;;;83.82;26.08;;;;;;;;;;5002126;28;20045;-86
2021/06/23 06:52:10;;;;;;;113.95;29.08;;;;;;;;;;5019628;28;20570;-86
2021/06/23 06:54:37;;;;;;;83.68;25.00;;;;;;;;;;5034053;28;20037;-87
2021/06/23 06:57:03;;;;;;;38.05;16.90;;;;;;;;;;5025021;28;20124;-86
2021/06/23 06:59:30;;;;;;;44.53;16.85;;;;;;;;;;5020955;28;20114;-87
2021/06/23 07:01:58;;;;;;;33.47;16.08;;;;;;;;;;5003775;28;20436;-86
2021/06/23 07:04:24;;;;;;;32.30;14.90;;;;;;;;;;4996302;28;20037;-85
2021/06/23 07:06:50;;;;;;;50.17;19.35;;;;;;;;;;5007463;28;20046;-87
2021/06/23 07:09:16;;;;;;;48.40;18.38;;;;;;;;;;5009506;28;20550;-86
2021/06/23 07:11:43;;;;;;;50.70;20.85;;;;;;;;;;5027741;28;20122;-86
2021/06/23 07:14:12;;;;;;;32.15;15.27;;;;;;;;;;5025640;28;20045;-87
2021/06/23 07:16:38;;;;;;;31.88;16.00;;;;;;;;;;5021916;28;20037;-87
2021/06/23 07:19:06;;;;;;;28.27;15.88;;;;;;;;;;5038193;28;20049;-87
2021/06/23 07:21:32;;;;;;;23.20;13.48;;;;;;;;;;5024609;28;20041;-86
2021/06/23 07:23:58;;;;;;;25.58;12.25;;;;;;;;;;5021793;28;20065;-85
2021/06/23 07:26:27;;;;;;;22.20;10.45;;;;;;;;;;5025250;28;20045;-86
2021/06/23 07:28:54;;;;;;;17.70;9.80;;;;;;;;;;5021364;28;20042;-86
2021/06/23 07:31:36;;;;;;;14.23;9.23;;;;;;;;;;5019485;28;20033;-85
2021/06/23 07:36:36;;;;;;;13.75;7.72;;;;;;;;;;5000813;28;20158;-87
2021/06/23 07:39:08;;;;;;;11.05;7.43;;;;;;;;;;5006310;28;20469;-87
2021/06/23 07:41:35;;;;;;;9.30;6.50;;;;;;;;;;5024427;28;20056;-86
2021/06/23 07:44:01;;;;;;;10.40;7.00;;;;;;;;;;4986463;28;20065;-85
2021/06/23 07:46:29;;;;;;;9.38;6.85;;;;;;;;;;5026705;28;20045;-86
2021/06/23 07:48:56;;;;;;;9.50;6.85;;;;;;;;;;5017238;28;20159;-87
2021/06/23 07:51:39;;;;;;;9.23;7.05;;;;;;;;;;5003016;28;20112;-86
2021/06/23 08:10:11;;;;;;;8.88;6.10;;;;;;;;;;5012374;28;20068;-86
2021/06/23 08:12:50;;;;;;;12.45;6.32;;;;;;;;;;5013832;28;20073;-85
2021/06/23 08:15:16;;;;;;;12.25;5.28;;;;;;;;;;5025223;28;20037;-87
2021/06/23 08:17:42;;;;;;;74.38;10.43;;;;;;;;;;5025385;28;20042;-88
2021/06/23 08:20:08;;;;;;;75.82;10.98;;;;;;;;;;5008726;28;20045;-87
2021/06/23 08:22:35;;;;;;;28.63;6.88;;;;;;;;;;5006376;28;20038;-87
2021/06/23 08:25:01;;;;;;;172.75;20.00;;;;;;;;;;4986598;28;20040;-86
2021/06/23 08:27:27;;;;;;;105.82;11.65;;;;;;;;;;5032980;28;20568;-87
2021/06/23 08:29:53;;;;;;;88.75;13.30;;;;;;;;;;4997412;28;20038;-86
2021/06/23 08:32:19;;;;;;;15.63;7.00;;;;;;;;;;5003868;28;20061;-86
2021/06/23 08:34:45;;;;;;;52.70;9.98;;;;;;;;;;5004331;28;20030;-87
2021/06/23 08:37:11;;;;;;;11.40;6.97;;;;;;;;;;5025070;28;20039;-87
2021/06/23 08:39:37;;;;;;;9.48;6.63;;;;;;;;;;5028209;28;20089;-85
2021/06/23 08:42:04;;;;;;;10.27;5.25;;;;;;;;;;5046224;28;20139;-84
2021/06/23 08:44:30;;;;;;;7.78;5.65;;;;;;;;;;5026685;28;20033;-86
2021/06/23 08:46:58;;;;;;;7.60;5.78;;;;;;;;;;5022487;28;20047;-86
2021/06/23 08:49:25;;;;;;;8.60;5.25;;;;;;;;;;5006355;28;20045;-86
2021/06/23 08:51:53;;;;;;;13.60;5.82;;;;;;;;;;5023147;28;20054;-86
2021/06/23 08:54:23;;;;;;;10.98;5.85;;;;;;;;;;5009857;28;20040;-85
2021/06/23 08:56:50;;;;;;;26.85;7.20;;;;;;;;;;4983601;28;20053;-87
2021/06/23 08:59:16;;;;;;;10.10;5.57;;;;;;;;;;5027780;28;20034;-86
2021/06/23 09:01:45;;;;;;;8.45;5.45;;;;;;;;;;5003496;28;20092;-87
2021/06/23 09:04:11;;;;;;;9.60;6.18;;;;;;;;;;5007791;28;20120;-87
2021/06/23 09:06:53;;;;;;;12.18;6.20;;;;;;;;;;5008688;28;20075;-86
2021/06/23 09:09:34;;;;;;;8.27;5.25;;;;;;;;;;5019916;28;20045;-87
2021/06/23 09:12:01;;;;;;;6.88;4.90;;;;;;;;;;5026176;28;20494;-88
2021/06/23 09:14:30;;;;;;;7.68;4.97;;;;;;;;;;5022438;28;20037;-87
2021/06/23 09:17:15;;;;;;;13.48;5.30;;;;;;;;;;4990490;28;20053;-86
2021/06/23 09:19:41;;;;;;;7.00;4.88;;;;;;;;;;5028835;28;20103;-87
2021/06/23 09:22:26;;;;;;;14.70;5.22;;;;;;;;;;5014191;28;20499;-87
2021/06/23 09:24:52;;;;;;;7.38;5.18;;;;;;;;;;5007175;28;20064;-88
2021/06/23 09:27:24;;;;;;;27.02;7.15;;;;;;;;;;4997433;28;20053;-88
2021/06/23 09:29:51;;;;;;;11.60;5.57;;;;;;;;;;4998556;28;20041;-88
2021/06/23 09:32:18;;;;;;;7.03;5.18;;;;;;;;;;4983244;28;20125;-88
2021/06/23 09:34:46;;;;;;;8.10;4.97;;;;;;;;;;4998713;28;20411;-88
2021/06/23 09:37:28;;;;;;;8.25;5.50;;;;;;;;;;5019945;28;20495;-87
2021/06/23 09:40:10;;;;;;;24.20;6.40;;;;;;;;;;5001062;28;20129;-86
2021/06/23 09:42:40;;;;;;;28.67;6.78;;;;;;;;;;4985842;28;20042;-86
2021/06/23 09:45:08;;;;;;;9.65;5.88;;;;;;;;;;4983367;28;20065;-84
2021/06/23 09:47:36;;;;;;;43.17;8.02;;;;;;;;;;5030672;28;20091;-85
2021/06/23 09:50:04;;;;;;;78.03;11.73;;;;;;;;;;5010150;28;20026;-87
2021/06/23 09:52:30;;;;;;;54.67;10.80;;;;;;;;;;4996757;28;20046;-83
2021/06/23 09:54:59;;;;;;;22.90;7.22;;;;;;;;;;4996656;28;20556;-83
2021/06/23 09:57:25;;;;;;;38.10;8.13;;;;;;;;;;5013616;28;20072;-82
2021/06/23 09:59:54;;;;;;;41.40;10.10;;;;;;;;;;5000617;28;20076;-83
2021/06/23 10:02:31;;;;;;;19.58;7.13;;;;;;;;;;4988110;28;20087;-83
2021/06/23 10:04:58;;;;;;;28.77;8.50;;;;;;;;;;4999859;28;20121;-87
2021/06/23 10:07:44;;;;;;;49.00;9.65;;;;;;;;;;5012653;28;20045;-85
2021/06/23 10:10:12;;;;;;;24.38;8.40;;;;;;;;;;4983563;28;20046;-86
2021/06/23 10:12:38;;;;;;;12.18;6.40;;;;;;;;;;4983608;28;20041;-81
2021/06/23 10:15:05;;;;;;;11.85;8.20;;;;;;;;;;5036592;28;20092;-82
2021/06/23 10:17:32;;;;;;;12.57;8.63;;;;;;;;;;5012080;28;20049;-80
2021/06/23 10:19:58;;;;;;;12.23;7.43;;;;;;;;;;5004230;28;20069;-80
2021/06/23 10:22:24;;;;;;;15.45;7.78;;;;;;;;;;4991165;28;20041;-81
2021/06/23 10:24:52;;;;;;;9.68;6.78;;;;;;;;;;4990853;28;20041;-81
2021/06/23 10:27:21;;;;;;;13.65;8.07;;;;;;;;;;4994913;28;20132;-80
2021/06/23 10:29:50;;;;;;;10.90;5.93;;;;;;;;;;4989625;28;20650;-82
2021/06/23 10:32:16;;;;;;;8.85;5.85;;;;;;;;;;5008670;28;20550;-81
2021/06/23 10:34:43;;;;;;;9.27;5.25;;;;;;;;;;5012394;28;20034;-84
2021/06/23 10:37:09;;;;;;;7.88;5.20;;;;;;;;;;5016812;28;20045;-80
2021/06/23 10:39:36;;;;;;;9.40;5.70;;;;;;;;;;5011190;28;20407;-80
2021/06/23 10:42:06;;;;;;;11.20;6.65;;;;;;;;;;4996957;28;20037;-80
2021/06/23 10:44:35;;;;;;;8.55;5.75;;;;;;;;;;4998371;28;20046;-80
2021/06/23 10:47:03;;;;;;;8.90;6.00;;;;;;;;;;5007696;28;20050;-81
2021/06/23 10:49:46;;;;;;;11.50;6.30;;;;;;;;;;5017280;28;20099;-80
2021/06/23 10:52:21;;;;;;;8.10;5.65;;;;;;;;;;5018724;28;20038;-83
2021/06/23 10:54:48;;;;;;;11.82;6.30;;;;;;;;;;5008111;28;20034;-81
2021/06/23 10:57:30;;;;;;;7.45;5.15;;;;;;;;;;5005267;28;20045;-80
2021/06/23 10:59:58;;;;;;;7.13;5.57;;;;;;;;;;5017787;28;20038;-79
2021/06/23 11:02:28;;;;;;;8.55;6.53;;;;;;;;;;5019986;28;20195;-79
2021/06/23 11:05:01;;;;;;;8.23;5.90;;;;;;;;;;5003044;28;20125;-80
2021/06/23 11:07:36;;;;;;;11.63;6.38;;;;;;;;;;5016053;28;20116;-83
2021/06/23 11:10:17;;;;;;;10.35;6.68;;;;;;;;;;5009030;28;20045;-79
2021/06/23 11:12:48;;;;;;;10.63;6.82;;;;;;;;;;4996934;28;20037;-80
2021/06/23 11:15:16;;;;;;;9.13;6.55;;;;;;;;;;5011033;28;20098;-80
2021/06/23 11:17:42;;;;;;;8.63;5.43;;;;;;;;;;4992900;28;20581;-83
2021/06/23 11:20:21;;;;;;;9.13;5.03;;;;;;;;;;4986920;28;20124;-82
2021/06/23 11:22:47;;;;;;;8.85;5.03;;;;;;;;;;5015167;28;20124;-82
2021/06/23 11:25:19;;;;;;;10.07;4.60;;;;;;;;;;4993921;28;20193;-80
2021/06/23 11:27:46;;;;;;;6.22;4.47;;;;;;;;;;5011058;28;20456;-82
2021/06/23 11:30:21;;;;;;;7.95;4.80;;;;;;;;;;4998780;28;20026;-81
2021/06/23 11:32:48;;;;;;;6.95;4.93;;;;;;;;;;5023997;28;20072;-80
2021/06/23 11:35:14;;;;;;;6.28;4.63;;;;;;;;;;5012982;28;20508;-81
2021/06/23 11:37:42;;;;;;;6.30;4.38;;;;;;;;;;5006837;28;20041;-80
2021/06/23 11:40:15;;;;;;;8.00;4.88;;;;;;;;;;5008891;28;20107;-81
2021/06/23 11:42:41;;;;;;;6.60;4.15;;;;;;;;;;5032133;28;20104;-82
2021/06/23 11:45:08;;;;;;;6.57;4.38;;;;;;;;;;5006302;28;20042;-82
2021/06/23 11:47:34;;;;;;;7.03;4.50;;;;;;;;;;5000223;28;20061;-81
2021/06/23 11:50:00;;;;;;;6.75;4.18;;;;;;;;;;5003408;28;20042;-84
2021/06/23 11:52:26;;;;;;;6.18;4.47;;;;;;;;;;4971659;28;20046;-79
2021/06/23 11:54:52;;;;;;;8.07;4.97;;;;;;;;;;4993459;28;20065;-82
2021/06/23 11:57:18;;;;;;;11.02;6.20;;;;;;;;;;4999177;28;20128;-79
2021/06/23 11:59:44;;;;;;;10.55;5.68;;;;;;;;;;4982865;28;20049;-80
2021/06/23 12:02:11;;;;;;;13.38;7.75;;;;;;;;;;5000065;28;20056;-78
2021/06/23 12:04:37;;;;;;;9.65;6.65;;;;;;;;;;4997111;28;20490;-81
2021/06/23 12:07:04;;;;;;;9.80;6.50;;;;;;;;;;4992553;28;20044;-85
2021/06/23 12:09:30;;;;;;;12.55;7.00;;;;;;;;;;5002431;28;20076;-84
2021/06/23 12:11:58;;;;;;;10.60;7.15;;;;;;;;;;4999329;28;20037;-80
2021/06/23 12:14:24;;;;;;;12.20;6.95;;;;;;;;;;4992654;28;20128;-80
2021/06/23 12:16:50;;;;;;;13.95;8.15;;;;;;;;;;4998467;28;20053;-78
2021/06/23 12:19:16;;;;;;;15.52;8.02;;;;;;;;;;4985618;28;20060;-80
2021/06/23 12:21:42;;;;;;;10.57;6.97;;;;;;;;;;4998606;28;20484;-79
2021/06/23 12:24:08;;;;;;;9.95;6.18;;;;;;;;;;4995359;28;20358;-82
2021/06/23 12:26:34;;;;;;;9.23;6.00;;;;;;;;;;4994294;28;20497;-78
2021/06/23 12:29:01;;;;;;;10.60;6.70;;;;;;;;;;4992419;28;21321;-79
2021/06/23 12:31:27;;;;;;;11.05;6.43;;;;;;;;;;4997346;28;20108;-80
2021/06/23 12:34:08;;;;;;;;;;;;;;;;;;;;;
2021/06/23 12:36:35;;;;;;;11.93;6.78;;;;;;;;;;4998048;28;20737;-79
2021/06/23 12:39:01;;;;;;;13.05;7.35;;;;;;;;;;4996857;28;20041;-78
2021/06/23 12:41:27;;;;;;;12.75;8.60;;;;;;;;;;4990795;28;20633;-83
2021/06/23 12:43:53;;;;;;;13.02;7.47;;;;;;;;;;4990840;28;20400;-80
2021/06/23 12:46:19;;;;;;;12.02;7.90;;;;;;;;;;4953530;28;20030;-80
2021/06/23 12:48:45;;;;;;;12.98;8.25;;;;;;;;;;4972187;28;20053;-80
2021/06/23 12:51:11;;;;;;;12.43;7.93;;;;;;;;;;4966464;28;20046;-80
2021/06/23 12:53:37;;;;;;;13.15;8.90;;;;;;;;;;4997594;28;20037;-81
2021/06/23 12:56:06;;;;;;;13.15;9.65;;;;;;;;;;5000574;28;20107;-81
2021/06/23 12:58:32;;;;;;;15.85;11.07;;;;;;;;;;4987982;28;20041;-80
2021/06/23 13:00:59;;;;;;;15.23;9.73;;;;;;;;;;4993366;28;20129;-81
2021/06/23 13:03:25;;;;;;;14.13;10.93;;;;;;;;;;4997244;28;20044;-78
2021/06/23 13:05:51;;;;;;;18.75;12.05;;;;;;;;;;4993898;28;20041;-82
2021/06/23 13:08:17;;;;;;;16.23;10.77;;;;;;;;;;4990492;28;20060;-80
2021/06/23 13:10:44;;;;;;;14.27;9.50;;;;;;;;;;4991382;28;20045;-79
2021/06/23 13:13:11;;;;;;;17.77;11.10;;;;;;;;;;4990022;28;20043;-81
2021/06/23 13:15:38;;;;;;;16.10;10.52;;;;;;;;;;4993228;28;20084;-83
2021/06/23 13:18:04;;;;;;;12.35;8.70;;;;;;;;;;4983373;28;20519;-80
2021/06/23 13:20:31;;;;;;;15.45;10.02;;;;;;;;;;4991905;28;20044;-78
2021/06/23 13:22:57;;;;;;;13.85;8.75;;;;;;;;;;4975012;28;20037;-79
2021/06/23 13:25:23;;;;;;;15.98;10.27;;;;;;;;;;5004811;28;20075;-84
2021/06/23 13:27:51;;;;;;;13.60;9.15;;;;;;;;;;4995599;28;20041;-83
2021/06/23 13:30:17;;;;;;;14.38;10.20;;;;;;;;;;4977118;28;20047;-80
2021/06/23 13:32:43;;;;;;;13.10;10.00;;;;;;;;;;5003442;28;20041;-80
2021/06/23 13:35:10;;;;;;;13.88;10.38;;;;;;;;;;4994286;28;20549;-79
2021/06/23 13:37:36;;;;;;;18.05;11.32;;;;;;;;;;4972790;28;20058;-82
2021/06/23 13:40:03;;;;;;;14.30;10.32;;;;;;;;;;5009627;28;20491;-81
2021/06/23 13:42:30;;;;;;;19.02;9.75;;;;;;;;;;4984158;28;20072;-84
2021/06/23 13:44:56;;;;;;;14.43;9.85;;;;;;;;;;4980650;28;20548;-88
2021/06/23 13:47:22;;;;;;;14.60;10.02;;;;;;;;;;4988644;28;20052;-84
2021/06/23 13:49:49;;;;;;;18.23;10.52;;;;;;;;;;4989496;28;20522;-83
2021/06/23 13:52:15;;;;;;;14.93;9.65;;;;;;;;;;4990943;28;20045;-85
2021/06/23 13:54:41;;;;;;;16.02;8.23;;;;;;;;;;4961304;28;20094;-83
2021/06/23 13:57:11;;;;;;;11.57;8.35;;;;;;;;;;5003595;28;20033;-84
2021/06/23 13:59:37;;;;;;;12.82;6.88;;;;;;;;;;5001264;28;20411;-86
2021/06/23 14:02:03;;;;;;;14.25;8.35;;;;;;;;;;4982747;28;20125;-80
2021/06/23 14:04:29;;;;;;;12.27;8.70;;;;;;;;;;4987680;28;20136;-81
2021/06/23 14:06:55;;;;;;;12.38;9.82;;;;;;;;;;4986711;28;20066;-80
2021/06/23 14:09:25;;;;;;;14.50;7.88;;;;;;;;;;5008660;28;20037;-86
2021/06/23 14:11:51;;;;;;;13.43;8.80;;;;;;;;;;4972944;28;20129;-79
2021/06/23 14:14:17;;;;;;;14.65;9.13;;;;;;;;;;4977134;28;20045;-82
2021/06/23 14:16:43;;;;;;;16.17;9.82;;;;;;;;;;4967077;28;20061;-82
2021/06/23 14:19:09;;;;;;;13.68;9.05;;;;;;;;;;4958252;28;20974;-80
2021/06/23 14:21:35;;;;;;;15.30;9.93;;;;;;;;;;4978310;28;20046;-85
2021/06/23 14:24:01;;;;;;;15.10;9.35;;;;;;;;;;4990879;28;20042;-80
2021/06/23 14:26:27;;;;;;;12.68;8.48;;;;;;;;;;4993714;28;20046;-83
2021/06/23 14:28:53;;;;;;;10.55;6.75;;;;;;;;;;4995092;28;20530;-80
2021/06/23 14:31:19;;;;;;;11.25;6.20;;;;;;;;;;4996321;28;20046;-80
2021/06/23 14:33:45;;;;;;;10.57;6.50;;;;;;;;;;4994645;28;20052;-84
2021/06/23 14:36:11;;;;;;;11.00;6.25;;;;;;;;;;4995899;28;20044;-80
2021/06/23 14:38:38;;;;;;;9.13;5.63;;;;;;;;;;5005965;28;20049;-79
2021/06/23 14:41:04;;;;;;;8.68;5.35;;;;;;;;;;4995041;28;20495;-82
2021/06/23 14:43:30;;;;;;;8.73;5.10;;;;;;;;;;4981826;28;20048;-81
2021/06/23 14:45:56;;;;;;;7.80;6.07;;;;;;;;;;4984461;28;20041;-82